sensor_id;sensor_type;location;lat;lon;timestamp;pressure;altitude;pressure_sealevel;temperature;humidity
62122;BME280;48108;47.532;19.084;2023-02-22T04:56:53;100402.38;;;7.13;100.00
62122;BME280;48108;47.532;19.084;2023-02-22T04:59:57;100402.87;;;7.08;100.00
62122;BME280;48108;47.532;19.084;2023-02-22T05:03:00;100409.44;;;7.14;100.00
62122;BME280;48108;47.532;19.084;2023-02-22T05:06:03;100407.94;;;7.19;100.00
62122;BME280;48108;47.532;19.084;2023-02-22T05:09:06;100412.66;;;7.17;100.00
62122;BME280;48108;47.532;19.084;2023-02-22T05:12:09;100402.84;;;7.26;100.00
62122;BME280;48108;47.532;19.084;2023-02-22T05:15:19;100404.31;;;7.20;100.00
62122;BME280;48108;47.532;19.084;2023-02-22T05:18:22;100412.12;;;7.14;100.00
62122;BME280;48108;47.532;19.084;2023-02-22T05:21:25;100417.63;;;7.12;100.00
62122;BME280;48108;47.532;19.084;2023-02-22T05:24:28;100416.00;;;7.01;100.00
62122;BME280;48108;47.532;19.084;2023-02-22T05:27:31;100413.94;;;6.95;100.00
62122;BME280;48108;47.532;19.084;2023-02-22T05:30:36;100422.06;;;6.86;100.00
62122;BME280;48108;47.532;19.084;2023-02-22T05:33:41;100425.97;;;6.73;100.00
62122;BME280;48108;47.532;19.084;2023-02-22T05:36:44;100430.09;;;6.68;100.00
62122;BME280;48108;47.532;19.084;2023-02-22T05:39:48;100432.38;;;6.63;100.00
62122;BME280;48108;47.532;19.084;2023-02-22T05:42:53;100435.78;;;6.55;100.00
62122;BME280;48108;47.532;19.084;2023-02-22T05:45:55;100435.84;;;6.45;100.00
62122;BME280;48108;47.532;19.084;2023-02-22T05:48:58;100440.91;;;6.48;100.00
62122;BME280;48108;47.532;19.084;2023-02-22T05:52:01;100449.09;;;6.47;100.00
62122;BME280;48108;47.532;19.084;2023-02-22T05:55:05;100452.44;;;6.49;100.00
62122;BME280;48108;47.532;19.084;2023-02-22T05:58:07;100461.16;;;6.51;100.00
62122;BME280;48108;47.532;19.084;2023-02-22T06:01:10;100466.75;;;6.57;100.00
62122;BME280;48108;47.532;19.084;2023-02-22T06:04:14;100476.84;;;6.64;100.00
62122;BME280;48108;47.532;19.084;2023-02-22T06:07:16;100471.28;;;6.75;100.00
62122;BME280;48108;47.532;19.084;2023-02-22T06:10:21;100485.59;;;6.84;100.00
62122;BME280;48108;47.532;19.084;2023-02-22T06:13:27;100486.47;;;7.02;100.00
62122;BME280;48108;47.532;19.084;2023-02-22T06:16:30;100476.06;;;7.17;100.00
62122;BME280;48108;47.532;19.084;2023-02-22T06:19:33;100478.66;;;7.26;100.00
62122;BME280;48108;47.532;19.084;2023-02-22T06:22:36;100479.34;;;7.46;100.00
62122;BME280;48108;47.532;19.084;2023-02-22T06:25:39;100491.22;;;7.70;100.00
62122;BME280;48108;47.532;19.084;2023-02-22T06:28:42;100490.09;;;7.81;100.00
62122;BME280;48108;47.532;19.084;2023-02-22T06:31:45;100492.28;;;8.03;100.00
62122;BME280;48108;47.532;19.084;2023-02-22T06:34:48;100494.16;;;8.37;100.00
62122;BME280;48108;47.532;19.084;2023-02-22T06:37:50;100500.31;;;8.63;100.00
62122;BME280;48108;47.532;19.084;2023-02-22T06:40:54;100498.22;;;8.92;100.00
62122;BME280;48108;47.532;19.084;2023-02-22T06:43:56;100503.66;;;9.24;100.00
62122;BME280;48108;47.532;19.084;2023-02-22T06:46:59;100490.91;;;9.43;100.00
62122;BME280;48108;47.532;19.084;2023-02-22T06:50:02;100493.56;;;9.67;98.85
62122;BME280;48108;47.532;19.084;2023-02-22T06:53:05;100495.22;;;9.93;97.14
62122;BME280;48108;47.532;19.084;2023-02-22T06:56:08;100499.72;;;10.17;95.02
62122;BME280;48108;47.532;19.084;2023-02-22T06:59:11;100501.03;;;10.37;94.08
62122;BME280;48108;47.532;19.084;2023-02-22T07:02:14;100500.84;;;10.47;92.65
62122;BME280;48108;47.532;19.084;2023-02-22T07:05:20;100494.53;;;10.63;92.04
62122;BME280;48108;47.532;19.084;2023-02-22T07:08:23;100494.47;;;10.79;90.79
62122;BME280;48108;47.532;19.084;2023-02-22T07:11:26;100495.00;;;10.75;90.33
62122;BME280;48108;47.532;19.084;2023-02-22T07:14:29;100505.78;;;10.66;91.82
62122;BME280;48108;47.532;19.084;2023-02-22T07:17:32;100504.09;;;10.74;90.85
62122;BME280;48108;47.532;19.084;2023-02-22T07:20:35;100505.06;;;10.81;90.43
62122;BME280;48108;47.532;19.084;2023-02-22T07:23:38;100504.13;;;10.65;91.01
62122;BME280;48108;47.532;19.084;2023-02-22T07:26:41;100502.28;;;10.66;91.29
62122;BME280;48108;47.532;19.084;2023-02-22T07:29:44;100503.50;;;10.86;90.93
62122;BME280;48108;47.532;19.084;2023-02-22T07:32:48;100491.34;;;10.90;90.13
62122;BME280;48108;47.532;19.084;2023-02-22T07:35:51;100509.81;;;11.02;89.00
62122;BME280;48108;47.532;19.084;2023-02-22T07:38:53;100497.59;;;10.91;90.03
62122;BME280;48108;47.532;19.084;2023-02-22T07:41:56;100499.50;;;11.05;89.30
62122;BME280;48108;47.532;19.084;2023-02-22T07:45:03;100509.84;;;11.25;88.10
62122;BME280;48108;47.532;19.084;2023-02-22T07:48:07;100498.22;;;11.47;86.94
62122;BME280;48108;47.532;19.084;2023-02-22T07:51:09;100496.91;;;11.43;86.92
62122;BME280;48108;47.532;19.084;2023-02-22T07:54:12;100496.31;;;11.56;86.58
62122;BME280;48108;47.532;19.084;2023-02-22T07:57:15;100500.03;;;11.32;87.67
62122;BME280;48108;47.532;19.084;2023-02-22T08:00:30;100497.94;;;11.42;87.11
62122;BME280;48108;47.532;19.084;2023-02-22T08:03:34;100509.13;;;11.54;86.15
62122;BME280;48108;47.532;19.084;2023-02-22T08:06:38;100496.03;;;11.89;84.29
62122;BME280;48108;47.532;19.084;2023-02-22T08:09:41;100497.56;;;12.06;83.59
62122;BME280;48108;47.532;19.084;2023-02-22T08:12:45;100500.81;;;12.31;82.36
62122;BME280;48108;47.532;19.084;2023-02-22T08:15:50;100488.25;;;12.23;81.94
62122;BME280;48108;47.532;19.084;2023-02-22T08:18:53;100504.53;;;12.30;81.90
62122;BME280;48108;47.532;19.084;2023-02-22T08:21:56;100504.16;;;12.48;80.84
62122;BME280;48108;47.532;19.084;2023-02-22T08:24:59;100497.91;;;12.62;80.39
62122;BME280;48108;47.532;19.084;2023-02-22T08:28:05;100502.38;;;12.70;79.51
62122;BME280;48108;47.532;19.084;2023-02-22T08:31:08;100499.94;;;12.75;79.39
62122;BME280;48108;47.532;19.084;2023-02-22T08:34:12;100496.50;;;12.52;79.36
62122;BME280;48108;47.532;19.084;2023-02-22T08:37:16;100500.63;;;12.33;80.73
62122;BME280;48108;47.532;19.084;2023-02-22T08:40:21;100499.81;;;12.32;81.38
62122;BME280;48108;47.532;19.084;2023-02-22T08:43:25;100505.47;;;12.52;80.78
62122;BME280;48108;47.532;19.084;2023-02-22T08:46:28;100507.16;;;12.53;80.17
62122;BME280;48108;47.532;19.084;2023-02-22T08:49:31;100503.53;;;12.61;79.22
62122;BME280;48108;47.532;19.084;2023-02-22T08:52:34;100504.56;;;12.96;78.96
62122;BME280;48108;47.532;19.084;2023-02-22T08:55:38;100502.84;;;13.10;77.92
62122;BME280;48108;47.532;19.084;2023-02-22T08:58:41;100509.44;;;13.22;76.60
62122;BME280;48108;47.532;19.084;2023-02-22T09:01:44;100506.81;;;13.29;75.52
62122;BME280;48108;47.532;19.084;2023-02-22T09:04:47;100512.03;;;13.52;74.75
62122;BME280;48108;47.532;19.084;2023-02-22T09:07:50;100507.34;;;13.60;73.23
62122;BME280;48108;47.532;19.084;2023-02-22T09:10:53;100501.59;;;13.70;73.93
62122;BME280;48108;47.532;19.084;2023-02-22T09:13:56;100508.53;;;13.36;74.33
62122;BME280;48108;47.532;19.084;2023-02-22T09:16:59;100503.94;;;13.52;73.54
62122;BME280;48108;47.532;19.084;2023-02-22T09:20:04;100513.06;;;13.51;73.78
62122;BME280;48108;47.532;19.084;2023-02-22T09:23:08;100508.13;;;13.54;74.73
62122;BME280;48108;47.532;19.084;2023-02-22T09:26:11;100502.19;;;13.44;74.76
62122;BME280;48108;47.532;19.084;2023-02-22T09:29:14;100504.44;;;13.41;74.91
62122;BME280;48108;47.532;19.084;2023-02-22T09:32:17;100501.47;;;13.57;73.78
62122;BME280;48108;47.532;19.084;2023-02-22T09:35:21;100496.12;;;13.92;73.25
62122;BME280;48108;47.532;19.084;2023-02-22T09:38:29;100496.12;;;13.92;71.94
62122;BME280;48108;47.532;19.084;2023-02-22T09:45:19;100500.41;;;14.07;71.38
62122;BME280;48108;47.532;19.084;2023-02-22T09:48:25;100490.31;;;13.95;73.75
62122;BME280;48108;47.532;19.084;2023-02-22T09:51:33;100493.91;;;13.74;74.39
62122;BME280;48108;47.532;19.084;2023-02-22T09:54:47;100492.91;;;13.75;74.85
62122;BME280;48108;47.532;19.084;2023-02-22T09:57:55;100494.09;;;14.00;73.47
62122;BME280;48108;47.532;19.084;2023-02-22T10:01:32;100491.66;;;14.40;71.97
62122;BME280;48108;47.532;19.084;2023-02-22T10:04:48;100491.94;;;14.17;73.82
62122;BME280;48108;47.532;19.084;2023-02-22T10:07:58;100495.63;;;14.44;70.75
62122;BME280;48108;47.532;19.084;2023-02-22T10:18:52;100481.06;;;14.11;70.94
62122;BME280;48108;47.532;19.084;2023-02-22T10:25:17;100482.31;;;14.49;71.09
62122;BME280;48108;47.532;19.084;2023-02-22T10:28:33;100481.25;;;14.44;70.02
62122;BME280;48108;47.532;19.084;2023-02-22T10:31:45;100479.88;;;14.55;68.77
62122;BME280;48108;47.532;19.084;2023-02-22T10:34:51;100465.31;;;14.62;69.88
62122;BME280;48108;47.532;19.084;2023-02-22T10:37:59;100469.69;;;14.57;69.08
62122;BME280;48108;47.532;19.084;2023-02-22T10:44:10;100458.34;;;14.94;68.48
62122;BME280;48108;47.532;19.084;2023-02-22T10:47:14;100467.34;;;15.02;66.50
62122;BME280;48108;47.532;19.084;2023-02-22T10:50:20;100466.19;;;14.69;67.77
62122;BME280;48108;47.532;19.084;2023-02-22T10:53:25;100460.81;;;14.83;66.90
62122;BME280;48108;47.532;19.084;2023-02-22T10:56:30;100469.81;;;14.90;66.63
62122;BME280;48108;47.532;19.084;2023-02-22T10:59:35;100463.06;;;14.31;70.41
62122;BME280;48108;47.532;19.084;2023-02-22T11:02:49;100459.44;;;14.17;71.12
62122;BME280;48108;47.532;19.084;2023-02-22T11:05:53;100454.53;;;14.34;71.43
62122;BME280;48108;47.532;19.084;2023-02-22T11:09:04;100451.22;;;14.39;70.20
62122;BME280;48108;47.532;19.084;2023-02-22T11:12:10;100452.78;;;14.20;69.39
62122;BME280;48108;47.532;19.084;2023-02-22T11:21:30;100442.59;;;13.87;71.35
62122;BME280;48108;47.532;19.084;2023-02-22T11:24:44;100439.41;;;13.77;71.21
62122;BME280;48108;47.532;19.084;2023-02-22T11:27:51;100430.75;;;13.88;71.29
62122;BME280;48108;47.532;19.084;2023-02-22T11:30:56;100437.22;;;13.94;70.93
62122;BME280;48108;47.532;19.084;2023-02-22T11:34:02;100439.53;;;13.97;70.52
62122;BME280;48108;47.532;19.084;2023-02-22T11:37:34;100433.87;;;13.92;71.69
62122;BME280;48108;47.532;19.084;2023-02-22T11:40:38;100433.37;;;13.75;73.07
62122;BME280;48108;47.532;19.084;2023-02-22T11:43:46;100433.41;;;13.53;74.24
62122;BME280;48108;47.532;19.084;2023-02-22T11:46:50;100430.81;;;13.67;73.39
62122;BME280;48108;47.532;19.084;2023-02-22T11:49:55;100435.41;;;13.45;74.38
62122;BME280;48108;47.532;19.084;2023-02-22T11:53:24;100439.25;;;13.57;75.34
62122;BME280;48108;47.532;19.084;2023-02-22T11:56:38;100434.34;;;13.67;74.52
62122;BME280;48108;47.532;19.084;2023-02-22T12:03:10;100426.47;;;13.44;74.59
62122;BME280;48108;47.532;19.084;2023-02-22T12:09:33;100420.31;;;13.29;74.72
62122;BME280;48108;47.532;19.084;2023-02-22T12:16:16;100422.66;;;13.17;75.93
62122;BME280;48108;47.532;19.084;2023-02-22T12:23:23;100416.37;;;13.31;73.51
62122;BME280;48108;47.532;19.084;2023-02-22T12:26:37;100417.25;;;13.38;73.94
62122;BME280;48108;47.532;19.084;2023-02-22T12:29:49;100416.37;;;13.59;73.13
62122;BME280;48108;47.532;19.084;2023-02-22T12:32:57;100409.69;;;13.83;72.62
62122;BME280;48108;47.532;19.084;2023-02-22T12:36:01;100413.00;;;14.14;72.88
62122;BME280;48108;47.532;19.084;2023-02-22T12:39:23;100409.87;;;14.17;70.02
62122;BME280;48108;47.532;19.084;2023-02-22T12:42:49;100399.72;;;14.32;68.74
62122;BME280;48108;47.532;19.084;2023-02-22T12:46:05;100399.94;;;14.31;69.87
62122;BME280;48108;47.532;19.084;2023-02-22T12:53:02;100400.94;;;14.23;69.47
62122;BME280;48108;47.532;19.084;2023-02-22T12:56:21;100390.75;;;13.83;71.49
62122;BME280;48108;47.532;19.084;2023-02-22T12:59:38;100388.75;;;13.64;72.83
62122;BME280;48108;47.532;19.084;2023-02-22T13:02:47;100385.13;;;13.57;74.05
62122;BME280;48108;47.532;19.084;2023-02-22T13:16:25;100374.12;;;13.09;77.60
62122;BME280;48108;47.532;19.084;2023-02-22T13:29:53;100383.13;;;13.37;74.78
62122;BME280;48108;47.532;19.084;2023-02-22T13:40:00;100377.41;;;13.54;75.47
62122;BME280;48108;47.532;19.084;2023-02-22T13:47:15;100377.38;;;13.75;74.90
62122;BME280;48108;47.532;19.084;2023-02-22T13:53:54;100377.13;;;13.70;75.27
62122;BME280;48108;47.532;19.084;2023-02-22T13:56:59;100373.16;;;13.66;75.81
62122;BME280;48108;47.532;19.084;2023-02-22T14:06:36;100377.88;;;13.57;76.90
62122;BME280;48108;47.532;19.084;2023-02-22T14:09:50;100379.16;;;13.61;75.95
62122;BME280;48108;47.532;19.084;2023-02-22T14:13:03;100385.38;;;13.62;73.39
62122;BME280;48108;47.532;19.084;2023-02-22T14:22:27;100371.53;;;13.44;76.15
62122;BME280;48108;47.532;19.084;2023-02-22T14:25:37;100369.69;;;13.23;77.52
62122;BME280;48108;47.532;19.084;2023-02-22T14:32:05;100370.06;;;13.20;77.17
62122;BME280;48108;47.532;19.084;2023-02-22T14:35:13;100364.00;;;13.18;77.62
62122;BME280;48108;47.532;19.084;2023-02-22T14:38:30;100372.59;;;13.00;78.98
62122;BME280;48108;47.532;19.084;2023-02-22T14:41:34;100374.97;;;12.88;79.71
62122;BME280;48108;47.532;19.084;2023-02-22T14:48:32;100370.41;;;12.67;81.47
62122;BME280;48108;47.532;19.084;2023-02-22T14:51:48;100373.16;;;12.52;82.72
62122;BME280;48108;47.532;19.084;2023-02-22T14:58:04;100366.75;;;12.38;84.10
62122;BME280;48108;47.532;19.084;2023-02-22T15:01:32;100359.56;;;12.45;82.60
62122;BME280;48108;47.532;19.084;2023-02-22T15:04:54;100365.94;;;12.38;83.13
62122;BME280;48108;47.532;19.084;2023-02-22T15:08:00;100360.19;;;12.26;85.36
62122;BME280;48108;47.532;19.084;2023-02-22T15:11:03;100356.38;;;12.20;85.45
62122;BME280;48108;47.532;19.084;2023-02-22T15:14:24;100362.87;;;12.26;85.82
62122;BME280;48108;47.532;19.084;2023-02-22T15:17:29;100365.59;;;12.26;85.37
62122;BME280;48108;47.532;19.084;2023-02-22T15:20:35;100358.75;;;12.30;84.00
62122;BME280;48108;47.532;19.084;2023-02-22T15:23:44;100357.09;;;12.29;84.53
62122;BME280;48108;47.532;19.084;2023-02-22T15:26:54;100363.50;;;12.28;84.02
62122;BME280;48108;47.532;19.084;2023-02-22T15:30:17;100360.75;;;12.07;86.00
62122;BME280;48108;47.532;19.084;2023-02-22T15:33:20;100362.25;;;12.09;85.60
62122;BME280;48108;47.532;19.084;2023-02-22T15:36:27;100360.47;;;12.01;86.78
62122;BME280;48108;47.532;19.084;2023-02-22T15:39:33;100366.91;;;12.00;88.66
62122;BME280;48108;47.532;19.084;2023-02-22T15:42:42;100356.50;;;11.97;88.30
62122;BME280;48108;47.532;19.084;2023-02-22T15:45:46;100358.25;;;11.90;88.37
62122;BME280;48108;47.532;19.084;2023-02-22T15:52:19;100358.13;;;11.84;87.85
62122;BME280;48108;47.532;19.084;2023-02-22T15:55:26;100351.25;;;11.81;88.14
62122;BME280;48108;47.532;19.084;2023-02-22T15:58:29;100354.25;;;11.71;87.48
62122;BME280;48108;47.532;19.084;2023-02-22T16:01:37;100353.41;;;11.71;88.25
62122;BME280;48108;47.532;19.084;2023-02-22T16:04:44;100350.41;;;11.66;88.65
62122;BME280;48108;47.532;19.084;2023-02-22T16:07:57;100359.06;;;11.61;88.05
62122;BME280;48108;47.532;19.084;2023-02-22T16:11:03;100350.69;;;11.56;83.85
62122;BME280;48108;47.532;19.084;2023-02-22T16:14:30;100357.47;;;11.52;82.78
62122;BME280;48108;47.532;19.084;2023-02-22T16:17:41;100362.69;;;11.39;84.15
62122;BME280;48108;47.532;19.084;2023-02-22T16:21:05;100360.06;;;11.30;84.14
62122;BME280;48108;47.532;19.084;2023-02-22T16:24:24;100363.19;;;11.19;85.53
62122;BME280;48108;47.532;19.084;2023-02-22T16:27:27;100360.50;;;11.19;84.25
62122;BME280;48108;47.532;19.084;2023-02-22T16:30:36;100369.13;;;11.15;85.40
62122;BME280;48108;47.532;19.084;2023-02-22T16:33:40;100371.91;;;11.06;86.18
62122;BME280;48108;47.532;19.084;2023-02-22T16:36:47;100366.41;;;11.00;86.68
62122;BME280;48108;47.532;19.084;2023-02-22T16:39:53;100380.19;;;10.97;87.21
62122;BME280;48108;47.532;19.084;2023-02-22T16:42:56;100372.13;;;10.97;87.02
62122;BME280;48108;47.532;19.084;2023-02-22T16:45:59;100379.37;;;10.96;85.64
62122;BME280;48108;47.532;19.084;2023-02-22T16:49:07;100380.03;;;10.98;85.96
62122;BME280;48108;47.532;19.084;2023-02-22T16:52:10;100380.94;;;10.90;87.34
62122;BME280;48108;47.532;19.084;2023-02-22T16:55:16;100389.66;;;10.93;86.61
62122;BME280;48108;47.532;19.084;2023-02-22T16:58:22;100394.47;;;10.82;88.64
